createdAt,value
2023-12-09T00:00:48.229Z,935.52
2023-12-09T00:01:48.175Z,935.48
2023-12-09T00:02:48.189Z,935.50
2023-12-09T00:03:48.203Z,935.55
2023-12-09T00:04:48.107Z,935.57
2023-12-09T00:05:48.128Z,935.57
2023-12-09T00:06:48.278Z,935.59
2023-12-09T00:07:48.080Z,935.62
2023-12-09T00:08:48.073Z,935.64
2023-12-09T00:09:48.066Z,935.68
2023-12-09T00:10:48.205Z,935.66
2023-12-09T00:11:48.082Z,935.65
2023-12-09T00:12:48.035Z,935.70
2023-12-09T00:13:48.027Z,935.72
2023-12-09T00:14:48.018Z,935.64
2023-12-09T00:15:48.055Z,935.67
2023-12-09T00:16:48.013Z,935.69
2023-12-09T00:17:48.034Z,935.67
2023-12-09T00:18:48.032Z,935.68
2023-12-09T00:19:48.044Z,935.65
2023-12-09T00:20:47.983Z,935.72
2023-12-09T00:21:47.961Z,935.66
2023-12-09T00:22:47.970Z,935.75
2023-12-09T00:23:48.596Z,935.71
2023-12-09T00:24:47.936Z,935.70
2023-12-09T00:25:47.925Z,935.75
2023-12-09T00:26:47.921Z,935.76
2023-12-09T00:27:47.914Z,935.77
2023-12-09T00:28:47.902Z,935.78
2023-12-09T00:29:47.894Z,935.80
2023-12-09T00:30:47.885Z,935.76
2023-12-09T00:31:47.881Z,935.88
2023-12-09T00:32:47.927Z,935.83
2023-12-09T00:33:47.940Z,935.86
2023-12-09T00:34:47.868Z,935.82
2023-12-09T00:35:47.853Z,935.83
2023-12-09T00:36:47.836Z,935.78
2023-12-09T00:37:47.839Z,935.80
2023-12-09T00:38:47.837Z,935.79
2023-12-09T00:39:47.818Z,935.80
2023-12-09T00:40:47.906Z,935.85
2023-12-09T00:41:47.795Z,935.86
2023-12-09T00:42:47.786Z,935.82
2023-12-09T00:43:47.780Z,935.87
2023-12-09T00:44:47.780Z,935.87
2023-12-09T00:45:47.768Z,935.78
2023-12-09T00:46:47.762Z,935.77
2023-12-09T00:47:47.919Z,935.75
2023-12-09T00:48:47.854Z,935.75
2023-12-09T00:49:47.772Z,935.73
2023-12-09T00:50:47.818Z,935.71
2023-12-09T00:51:47.711Z,935.76
2023-12-09T00:52:47.702Z,935.75
2023-12-09T00:53:47.697Z,935.80
2023-12-09T00:54:47.687Z,935.81
2023-12-09T00:55:47.681Z,935.79
2023-12-09T00:56:47.772Z,935.80
2023-12-09T00:57:47.657Z,935.80
2023-12-09T00:58:47.649Z,935.81
2023-12-09T00:59:47.640Z,935.83
2023-12-09T01:00:47.731Z,935.84
2023-12-09T01:01:47.622Z,935.85
2023-12-09T01:02:47.658Z,935.81
2023-12-09T01:03:47.701Z,935.77
2023-12-09T01:04:47.646Z,935.84
2023-12-09T01:05:47.593Z,935.78
2023-12-09T01:06:47.587Z,935.84
2023-12-09T01:07:47.574Z,935.82
2023-12-09T01:08:47.664Z,935.77
2023-12-09T01:09:47.577Z,935.82
2023-12-09T01:10:47.546Z,935.82
2023-12-09T01:11:47.539Z,935.84
2023-12-09T01:12:47.582Z,935.88
2023-12-09T01:13:47.520Z,935.91
2023-12-09T01:14:47.520Z,935.93
2023-12-09T01:15:47.503Z,935.93
2023-12-09T01:16:47.500Z,935.91
2023-12-09T01:17:48.714Z,935.87
2023-12-09T01:18:47.528Z,935.90
2023-12-09T01:19:47.596Z,935.89
2023-12-09T01:20:47.458Z,935.88
2023-12-09T01:21:47.449Z,935.88
2023-12-09T01:22:47.442Z,935.93
2023-12-09T01:23:47.456Z,935.95
2023-12-09T01:24:47.431Z,935.96
2023-12-09T01:25:47.414Z,935.94
2023-12-09T01:26:47.425Z,935.95
2023-12-09T01:27:47.398Z,935.96
2023-12-09T01:28:47.400Z,935.90
2023-12-09T01:29:47.384Z,935.90
2023-12-09T01:30:47.375Z,935.89
2023-12-09T01:31:47.369Z,935.87
2023-12-09T01:32:47.414Z,935.88
2023-12-09T01:33:47.563Z,935.89
2023-12-09T01:34:47.429Z,935.92
2023-12-09T01:35:47.335Z,935.87
2023-12-09T01:36:47.333Z,935.87
2023-12-09T01:37:47.337Z,935.88
2023-12-09T01:38:47.315Z,935.89
2023-12-09T01:39:47.411Z,935.86
2023-12-09T01:40:47.297Z,935.88
2023-12-09T01:41:47.287Z,935.92
2023-12-09T01:42:47.277Z,935.85
2023-12-09T01:43:47.269Z,935.83
2023-12-09T01:44:47.259Z,935.78
2023-12-09T01:45:47.251Z,935.85
2023-12-09T01:46:47.242Z,935.84
2023-12-09T01:47:47.275Z,935.85
2023-12-09T01:48:47.369Z,935.86
2023-12-09T01:49:47.401Z,935.87
2023-12-09T01:50:47.242Z,935.82
2023-12-09T01:51:47.202Z,935.81
2023-12-09T01:52:47.209Z,935.83
2023-12-09T01:53:47.183Z,935.83
2023-12-09T01:54:47.177Z,935.83
2023-12-09T01:55:47.171Z,935.85
2023-12-09T01:56:47.161Z,935.81
2023-12-09T01:57:47.161Z,935.83
2023-12-09T01:58:47.145Z,935.75
2023-12-09T01:59:47.138Z,935.72
2023-12-09T02:00:47.179Z,935.68
2023-12-09T02:01:47.117Z,935.72
2023-12-09T02:02:47.199Z,935.72
2023-12-09T02:03:47.182Z,935.71
2023-12-09T02:04:47.130Z,935.70
2023-12-09T02:05:47.088Z,935.65
2023-12-09T02:06:47.085Z,935.67
2023-12-09T02:07:47.066Z,935.58
2023-12-09T02:08:47.062Z,935.60
2023-12-09T02:09:47.053Z,935.53
2023-12-09T02:10:47.045Z,935.53
2023-12-09T02:11:47.036Z,935.50
2023-12-09T02:12:47.036Z,935.54
2023-12-09T02:13:47.027Z,935.52
2023-12-09T02:14:47.009Z,935.48
2023-12-09T02:15:47.017Z,935.46
2023-12-09T02:16:46.995Z,935.48
2023-12-09T02:17:47.006Z,935.45
2023-12-09T02:18:47.089Z,935.47
2023-12-09T02:19:46.969Z,935.41
2023-12-09T02:20:46.963Z,935.44
2023-12-09T02:21:46.953Z,935.40
2023-12-09T02:22:46.944Z,935.34
2023-12-09T02:23:46.938Z,935.32
2023-12-09T02:24:47.133Z,935.32
2023-12-09T02:25:46.918Z,935.27
2023-12-09T02:26:46.910Z,935.31
2023-12-09T02:27:46.908Z,935.22
2023-12-09T02:28:46.905Z,935.18
2023-12-09T02:29:46.884Z,935.17
2023-12-09T02:30:46.881Z,935.13
2023-12-09T02:31:46.869Z,935.20
2023-12-09T02:32:47.050Z,935.20
2023-12-09T02:33:46.983Z,935.22
2023-12-09T02:34:46.882Z,935.22
2023-12-09T02:35:46.833Z,935.20
2023-12-09T02:36:46.831Z,935.21
2023-12-09T02:37:46.815Z,935.19
2023-12-09T02:38:46.812Z,935.13
2023-12-09T02:39:46.900Z,935.22
2023-12-09T02:40:46.790Z,935.14
2023-12-09T02:41:46.783Z,935.19
2023-12-09T02:42:46.775Z,935.17
2023-12-09T02:43:46.774Z,935.19
2023-12-09T02:44:46.771Z,935.20
2023-12-09T02:45:46.766Z,935.18
2023-12-09T02:46:46.741Z,935.12
2023-12-09T02:47:46.795Z,935.07
2023-12-09T02:48:46.852Z,935.12
2023-12-09T02:49:47.068Z,935.13
2023-12-09T02:50:46.709Z,935.18
2023-12-09T02:51:46.696Z,935.15
2023-12-09T02:52:46.688Z,935.10
2023-12-09T02:53:46.683Z,935.07
2023-12-09T02:54:46.676Z,935.06
2023-12-09T02:55:46.663Z,935.06
2023-12-09T02:56:46.656Z,935.05
2023-12-09T02:57:46.643Z,935.03
2023-12-09T02:58:46.634Z,935.04
2023-12-09T02:59:46.632Z,934.96
2023-12-09T03:00:46.638Z,934.94
2023-12-09T03:01:46.709Z,934.88
2023-12-09T03:02:46.630Z,934.84
2023-12-09T03:03:46.678Z,934.86
2023-12-09T03:04:46.619Z,934.87
2023-12-09T03:05:46.574Z,934.85
2023-12-09T03:06:46.566Z,934.85
2023-12-09T03:07:46.666Z,934.87
2023-12-09T03:08:46.552Z,934.86
2023-12-09T03:09:46.543Z,934.91
2023-12-09T03:10:46.531Z,934.86
2023-12-09T03:11:46.529Z,934.88
2023-12-09T03:12:46.525Z,934.88
2023-12-09T03:13:46.505Z,934.87
2023-12-09T03:14:46.503Z,934.86
2023-12-09T03:15:46.488Z,934.86
2023-12-09T03:16:46.478Z,934.83
2023-12-09T03:17:46.592Z,934.81
2023-12-09T03:18:46.679Z,934.80
2023-12-09T03:19:46.536Z,934.73
2023-12-09T03:20:46.451Z,934.74
2023-12-09T03:21:46.440Z,934.76
2023-12-09T03:22:46.431Z,934.78
2023-12-09T03:23:46.418Z,934.78
2023-12-09T03:24:46.415Z,934.80
2023-12-09T03:25:46.405Z,934.75
2023-12-09T03:26:46.390Z,934.76
2023-12-09T03:27:46.379Z,934.76
2023-12-09T03:28:46.571Z,934.72
2023-12-09T03:29:46.359Z,934.70
2023-12-09T03:30:46.360Z,934.70
2023-12-09T03:31:46.344Z,934.67
2023-12-09T03:32:46.362Z,934.70
2023-12-09T03:33:46.496Z,934.65
2023-12-09T03:34:46.363Z,934.62
2023-12-09T03:35:46.310Z,934.66
2023-12-09T03:36:46.300Z,934.58
2023-12-09T03:37:46.289Z,934.60
2023-12-09T03:38:46.280Z,934.60
2023-12-09T03:39:46.276Z,934.57
2023-12-09T03:40:46.261Z,934.50
2023-12-09T03:41:46.250Z,934.43
2023-12-09T03:42:46.243Z,934.45
2023-12-09T03:43:46.273Z,934.39
2023-12-09T03:44:46.226Z,934.36
2023-12-09T03:45:46.218Z,934.31
2023-12-09T03:46:46.208Z,934.34
2023-12-09T03:47:46.253Z,934.31
2023-12-09T03:48:46.315Z,934.25
2023-12-09T03:49:46.284Z,934.25
2023-12-09T03:50:46.196Z,934.27
2023-12-09T03:51:46.162Z,934.24
2023-12-09T03:52:46.184Z,934.22
2023-12-09T03:53:46.256Z,934.22
2023-12-09T03:54:46.198Z,934.18
2023-12-09T03:55:46.126Z,934.14
2023-12-09T03:56:46.124Z,934.16
2023-12-09T03:57:46.110Z,934.16
2023-12-09T03:58:46.106Z,934.14
2023-12-09T03:59:46.098Z,934.12
2023-12-09T04:00:46.210Z,934.16
2023-12-09T04:01:46.072Z,934.11
2023-12-09T04:02:46.063Z,934.04
2023-12-09T04:03:46.208Z,934.05
2023-12-09T04:04:46.047Z,934.06
2023-12-09T04:05:46.071Z,934.09
2023-12-09T04:06:46.067Z,934.06
2023-12-09T04:07:46.020Z,934.08
2023-12-09T04:08:46.012Z,934.08
2023-12-09T04:09:46.003Z,934.08
2023-12-09T04:10:45.995Z,934.07
2023-12-09T04:11:45.981Z,934.02
2023-12-09T04:12:46.005Z,934.03
2023-12-09T04:13:45.967Z,934.02
2023-12-09T04:14:45.961Z,933.99
2023-12-09T04:15:45.957Z,933.94
2023-12-09T04:16:45.945Z,933.91
2023-12-09T04:17:45.969Z,933.92
2023-12-09T04:18:46.014Z,933.88
2023-12-09T04:19:46.046Z,933.90
2023-12-09T04:20:45.937Z,933.89
2023-12-09T04:21:45.894Z,933.91
2023-12-09T04:22:45.891Z,933.94
2023-12-09T04:23:45.879Z,933.92
2023-12-09T04:24:45.869Z,933.90
2023-12-09T04:25:45.856Z,933.91
2023-12-09T04:26:45.851Z,933.88
2023-12-09T04:27:45.840Z,933.84
2023-12-09T04:28:45.832Z,933.83
2023-12-09T04:29:45.824Z,933.81
2023-12-09T04:30:45.835Z,933.79
2023-12-09T04:31:45.805Z,933.79
2023-12-09T04:32:45.827Z,933.76
2023-12-09T04:33:45.993Z,933.78
2023-12-09T04:34:45.778Z,933.83
2023-12-09T04:35:45.770Z,933.81
2023-12-09T04:36:45.762Z,933.83
2023-12-09T04:37:45.761Z,933.78
2023-12-09T04:38:45.758Z,933.82
2023-12-09T04:39:45.733Z,933.80
2023-12-09T04:40:45.743Z,933.84
2023-12-09T04:41:45.714Z,933.82
2023-12-09T04:42:45.772Z,933.84
2023-12-09T04:43:45.696Z,933.88
2023-12-09T04:44:45.795Z,933.83
2023-12-09T04:45:45.680Z,933.78
2023-12-09T04:46:45.672Z,933.78
2023-12-09T04:47:45.747Z,933.77
2023-12-09T04:48:45.842Z,933.76
2023-12-09T04:49:45.757Z,933.82
2023-12-09T04:50:45.637Z,933.78
2023-12-09T04:51:45.627Z,933.78
2023-12-09T04:52:45.625Z,933.79
2023-12-09T04:53:45.608Z,933.76
2023-12-09T04:54:45.605Z,933.73
2023-12-09T04:55:45.698Z,933.76
2023-12-09T04:56:45.591Z,933.72
2023-12-09T04:57:45.581Z,933.68
2023-12-09T04:58:45.582Z,933.72
2023-12-09T04:59:45.557Z,933.72
2023-12-09T05:00:45.603Z,933.72
2023-12-09T05:01:45.637Z,933.73
2023-12-09T05:02:45.532Z,933.77
2023-12-09T05:03:45.544Z,933.78
2023-12-09T05:04:45.513Z,933.72
2023-12-09T05:05:45.588Z,933.77
2023-12-09T05:06:45.529Z,933.75
2023-12-09T05:07:45.484Z,933.73
2023-12-09T05:08:45.482Z,933.60
2023-12-09T05:09:45.541Z,933.61
2023-12-09T05:10:45.462Z,933.61
2023-12-09T05:11:45.473Z,933.63
2023-12-09T05:12:45.484Z,933.61
2023-12-09T05:13:45.433Z,933.66
2023-12-09T05:14:45.433Z,933.64
2023-12-09T05:15:45.607Z,933.64
2023-12-09T05:16:45.407Z,933.69
2023-12-09T05:17:45.452Z,933.68
2023-12-09T05:18:45.500Z,933.69
2023-12-09T05:19:45.457Z,933.71
2023-12-09T05:20:45.393Z,933.62
2023-12-09T05:21:45.580Z,933.61
2023-12-09T05:22:45.347Z,933.63
2023-12-09T05:23:45.344Z,933.63
2023-12-09T05:24:45.332Z,933.67
2023-12-09T05:25:45.323Z,933.67
2023-12-09T05:26:45.309Z,933.64
2023-12-09T05:27:45.298Z,933.60
2023-12-09T05:28:45.292Z,933.66
2023-12-09T05:29:45.282Z,933.64
2023-12-09T05:30:45.347Z,933.64
2023-12-09T05:31:45.367Z,933.61
2023-12-09T05:32:45.301Z,933.70
2023-12-09T05:33:45.370Z,933.68
2023-12-09T05:34:45.306Z,933.66
2023-12-09T05:35:45.229Z,933.66
2023-12-09T05:36:45.321Z,933.69
2023-12-09T05:37:45.249Z,933.73
2023-12-09T05:38:45.213Z,933.69
2023-12-09T05:39:45.192Z,933.69
2023-12-09T05:40:45.190Z,933.73
2023-12-09T05:41:45.184Z,933.69
2023-12-09T05:42:45.228Z,933.67
2023-12-09T05:43:45.163Z,933.64
2023-12-09T05:44:45.148Z,933.63
2023-12-09T05:45:45.165Z,933.58
2023-12-09T05:46:45.137Z,933.62
2023-12-09T05:47:45.190Z,933.64
2023-12-09T05:48:45.242Z,933.65
2023-12-09T05:49:45.150Z,933.63
2023-12-09T05:50:45.092Z,933.60
2023-12-09T05:51:45.081Z,933.55
2023-12-09T05:52:45.074Z,933.56
2023-12-09T05:53:45.076Z,933.55
2023-12-09T05:54:45.070Z,933.57
2023-12-09T05:55:45.057Z,933.54
2023-12-09T05:56:45.039Z,933.52
2023-12-09T05:57:45.029Z,933.53
2023-12-09T05:58:45.021Z,933.55
2023-12-09T05:59:45.009Z,933.54
2023-12-09T06:00:45.103Z,933.53
2023-12-09T06:01:44.995Z,933.52
2023-12-09T06:02:44.982Z,933.50
2023-12-09T06:03:45.016Z,933.50
2023-12-09T06:04:45.027Z,933.50
2023-12-09T06:05:44.987Z,933.45
2023-12-09T06:06:44.978Z,933.49
2023-12-09T06:07:44.938Z,933.45
2023-12-09T06:08:44.929Z,933.46
2023-12-09T06:09:44.932Z,933.43
2023-12-09T06:10:44.910Z,933.40
2023-12-09T06:11:44.902Z,933.41
2023-12-09T06:12:44.948Z,933.41
2023-12-09T06:13:44.883Z,933.40
2023-12-09T06:14:44.871Z,933.39
2023-12-09T06:15:45.518Z,933.37
2023-12-09T06:16:44.855Z,933.37
2023-12-09T06:17:44.912Z,933.33
2023-12-09T06:18:44.852Z,933.34
2023-12-09T06:19:44.858Z,933.30
2023-12-09T06:20:44.820Z,933.32
2023-12-09T06:21:44.961Z,933.31
2023-12-09T06:22:44.798Z,933.34
2023-12-09T06:23:44.790Z,933.32
2023-12-09T06:24:44.875Z,933.30
2023-12-09T06:25:44.771Z,933.27
2023-12-09T06:26:44.762Z,933.22
2023-12-09T06:27:44.758Z,933.26
2023-12-09T06:28:44.740Z,933.23
2023-12-09T06:29:44.738Z,933.25
2023-12-09T06:30:44.754Z,933.31
2023-12-09T06:31:44.719Z,933.30
2023-12-09T06:32:44.894Z,933.28
2023-12-09T06:33:44.850Z,933.28
2023-12-09T06:34:44.884Z,933.29
2023-12-09T06:35:44.684Z,933.28
2023-12-09T06:36:44.670Z,933.28
2023-12-09T06:37:44.865Z,933.27
2023-12-09T06:38:44.648Z,933.30
2023-12-09T06:39:44.664Z,933.30
2023-12-09T06:40:44.632Z,933.34
2023-12-09T06:41:44.622Z,933.35
2023-12-09T06:42:44.761Z,933.35
2023-12-09T06:43:44.604Z,933.36
2023-12-09T06:44:44.597Z,933.39
2023-12-09T06:45:44.614Z,933.39
2023-12-09T06:46:44.582Z,933.46
2023-12-09T06:47:44.719Z,933.49
2023-12-09T06:48:44.904Z,933.49
2023-12-09T06:49:44.683Z,933.50
2023-12-09T06:50:44.542Z,933.49
2023-12-09T06:51:44.538Z,933.59
2023-12-09T06:52:44.522Z,933.58
2023-12-09T06:53:44.516Z,933.60
2023-12-09T06:54:44.636Z,933.57
2023-12-09T06:55:44.498Z,933.57
2023-12-09T06:56:44.497Z,933.61
2023-12-09T06:57:44.528Z,933.60
2023-12-09T06:58:44.461Z,933.58
2023-12-09T06:59:44.504Z,933.57
2023-12-09T07:00:44.629Z,933.55
2023-12-09T07:01:44.569Z,933.51
2023-12-09T07:02:53.077Z,933.55
2023-12-09T07:03:44.475Z,933.55
2023-12-09T07:04:44.572Z,933.53
2023-12-09T07:05:44.423Z,933.50
2023-12-09T07:06:44.388Z,933.53
2023-12-09T07:07:44.381Z,933.53
2023-12-09T07:08:44.371Z,933.54
2023-12-09T07:09:44.375Z,933.57
2023-12-09T07:10:44.346Z,933.60
2023-12-09T07:11:44.340Z,933.63
2023-12-09T07:12:44.355Z,933.59
2023-12-09T07:13:44.324Z,933.64
2023-12-09T07:14:44.419Z,933.59
2023-12-09T07:15:44.325Z,933.60
2023-12-09T07:16:44.293Z,933.60
2023-12-09T07:17:44.336Z,933.58
2023-12-09T07:18:44.361Z,933.61
2023-12-09T07:19:44.388Z,933.63
2023-12-09T07:20:44.253Z,933.66
2023-12-09T07:21:44.249Z,933.67
2023-12-09T07:22:44.233Z,933.67
2023-12-09T07:23:44.223Z,933.72
2023-12-09T07:24:44.256Z,933.71
2023-12-09T07:25:44.204Z,933.71
2023-12-09T07:26:44.203Z,933.78
2023-12-09T07:27:44.184Z,933.79
2023-12-09T07:28:44.173Z,933.83
2023-12-09T07:29:44.170Z,933.80
2023-12-09T07:30:44.178Z,933.78
2023-12-09T07:31:44.148Z,933.78
2023-12-09T07:32:44.198Z,933.79
2023-12-09T07:33:44.206Z,933.76
2023-12-09T07:34:44.210Z,933.76
2023-12-09T07:35:44.110Z,933.77
2023-12-09T07:36:44.130Z,933.76
2023-12-09T07:37:47.217Z,933.76
2023-12-09T07:38:44.084Z,933.73
2023-12-09T07:39:44.070Z,933.81
2023-12-09T07:40:44.063Z,933.82
2023-12-09T07:41:44.071Z,933.86
2023-12-09T07:42:44.062Z,933.86
2023-12-09T07:43:44.031Z,933.87
2023-12-09T07:44:44.056Z,933.87
2023-12-09T07:45:44.066Z,933.91
2023-12-09T07:46:44.003Z,933.95
2023-12-09T07:47:44.027Z,933.91
2023-12-09T07:48:44.099Z,933.95
2023-12-09T07:49:44.139Z,933.96
2023-12-09T07:50:43.969Z,933.99
2023-12-09T07:51:43.964Z,933.98
2023-12-09T07:52:43.950Z,934.01
2023-12-09T07:53:43.968Z,934.02
2023-12-09T07:54:44.094Z,934.04
2023-12-09T07:55:43.916Z,934.02
2023-12-09T07:56:43.902Z,934.04
2023-12-09T07:57:43.901Z,934.04
2023-12-09T07:58:43.887Z,934.06
2023-12-09T07:59:43.887Z,934.07
2023-12-09T08:00:43.966Z,934.09
2023-12-09T08:01:43.863Z,934.10
2023-12-09T08:02:43.850Z,934.14
2023-12-09T08:03:43.939Z,934.13
2023-12-09T08:04:43.879Z,934.17
2023-12-09T08:05:45.711Z,934.13
2023-12-09T08:06:43.836Z,934.14
2023-12-09T08:07:43.804Z,934.19
2023-12-09T08:08:43.790Z,934.22
2023-12-09T08:09:43.852Z,934.18
2023-12-09T08:10:43.870Z,934.22
2023-12-09T08:11:43.757Z,934.20
2023-12-09T08:12:43.767Z,934.21
2023-12-09T08:13:43.741Z,934.25
2023-12-09T08:14:43.729Z,934.28
2023-12-09T08:15:43.760Z,934.28
2023-12-09T08:16:43.714Z,934.28
2023-12-09T08:17:43.774Z,934.31
2023-12-09T08:18:43.853Z,934.28
2023-12-09T08:19:43.733Z,934.29
2023-12-09T08:20:43.676Z,934.29
2023-12-09T08:21:43.715Z,934.29
2023-12-09T08:22:43.652Z,934.26
2023-12-09T08:23:43.653Z,934.25
2023-12-09T08:24:43.630Z,934.27
2023-12-09T08:25:43.627Z,934.26
2023-12-09T08:26:43.636Z,934.23
2023-12-09T08:27:43.832Z,934.24
2023-12-09T08:28:43.599Z,934.25
2023-12-09T08:29:43.588Z,934.27
2023-12-09T08:30:43.616Z,934.24
2023-12-09T08:31:43.564Z,934.20
2023-12-09T08:32:43.680Z,934.24
2023-12-09T08:33:43.698Z,934.22
2023-12-09T08:34:48.878Z,934.26
2023-12-09T08:35:43.531Z,934.31
2023-12-09T08:36:43.574Z,934.35
2023-12-09T08:37:43.513Z,934.37
2023-12-09T08:38:43.709Z,934.37
2023-12-09T08:39:43.520Z,934.42
2023-12-09T08:40:43.478Z,934.37
2023-12-09T08:41:43.485Z,934.34
2023-12-09T08:42:43.568Z,934.39
2023-12-09T08:43:43.449Z,934.39
2023-12-09T08:44:43.464Z,934.38
2023-12-09T08:45:43.502Z,934.39
2023-12-09T08:46:43.421Z,934.44
2023-12-09T08:47:45.335Z,934.45
2023-12-09T08:48:43.562Z,934.48
2023-12-09T08:49:43.462Z,934.43
2023-12-09T08:50:43.382Z,934.41
2023-12-09T08:51:43.415Z,934.42
2023-12-09T08:52:43.363Z,934.41
2023-12-09T08:53:43.353Z,934.40
2023-12-09T08:54:43.415Z,934.38
2023-12-09T08:55:43.341Z,934.36
2023-12-09T08:56:43.358Z,934.38
2023-12-09T08:57:43.398Z,934.40
2023-12-09T08:58:43.300Z,934.42
2023-12-09T08:59:43.400Z,934.40
2023-12-09T09:00:43.438Z,934.43
2023-12-09T09:01:43.333Z,934.41
2023-12-09T09:02:43.264Z,934.41
2023-12-09T09:03:43.395Z,934.45
2023-12-09T09:04:43.327Z,934.44
2023-12-09T09:05:43.282Z,934.42
2023-12-09T09:06:43.260Z,934.44
2023-12-09T09:07:43.219Z,934.44
2023-12-09T09:08:43.222Z,934.39
2023-12-09T09:09:43.370Z,934.48
2023-12-09T09:10:43.192Z,934.44
2023-12-09T09:11:43.180Z,934.46
2023-12-09T09:12:43.234Z,934.49
2023-12-09T09:13:43.168Z,934.47
2023-12-09T09:14:43.151Z,934.48
2023-12-09T09:15:43.191Z,934.43
2023-12-09T09:16:43.157Z,934.45
2023-12-09T09:17:43.158Z,934.49
2023-12-09T09:18:43.211Z,934.51
2023-12-09T09:19:43.272Z,934.57
2023-12-09T09:20:43.093Z,934.59
2023-12-09T09:21:43.144Z,934.63
2023-12-09T09:22:46.388Z,934.63
2023-12-09T09:23:43.076Z,934.65
2023-12-09T09:24:43.054Z,934.64
2023-12-09T09:25:43.045Z,934.65
2023-12-09T09:26:43.035Z,934.67
2023-12-09T09:27:43.097Z,934.67
2023-12-09T09:28:43.032Z,934.60
2023-12-09T09:29:43.007Z,934.63
2023-12-09T09:30:43.031Z,934.70
2023-12-09T09:31:42.989Z,934.73
2023-12-09T09:32:43.000Z,934.78
2023-12-09T09:33:43.068Z,934.78
2023-12-09T09:34:43.009Z,934.82
2023-12-09T09:35:42.953Z,934.80
2023-12-09T09:36:42.979Z,934.85
2023-12-09T09:37:42.930Z,934.90
2023-12-09T09:38:42.919Z,934.90
2023-12-09T09:39:43.000Z,934.96
2023-12-09T09:40:42.902Z,934.96
2023-12-09T09:41:42.891Z,934.98
2023-12-09T09:42:42.901Z,935.02
2023-12-09T09:43:42.875Z,934.99
2023-12-09T09:44:42.863Z,934.98
2023-12-09T09:45:42.886Z,935.02
2023-12-09T09:46:42.842Z,935.04
2023-12-09T09:47:42.907Z,935.04
2023-12-09T09:48:42.931Z,935.07
2023-12-09T09:49:42.918Z,935.05
2023-12-09T09:50:43.039Z,935.12
2023-12-09T09:51:42.829Z,935.15
2023-12-09T09:52:42.785Z,935.12
2023-12-09T09:53:42.785Z,935.13
2023-12-09T09:54:42.773Z,935.10
2023-12-09T09:55:42.853Z,935.07
2023-12-09T09:56:42.744Z,935.10
2023-12-09T09:57:42.768Z,935.13
2023-12-09T09:58:42.728Z,935.15
2023-12-09T09:59:42.712Z,935.13
2023-12-09T10:00:42.832Z,935.19
2023-12-09T10:01:42.736Z,935.23
2023-12-09T10:02:42.686Z,935.17
2023-12-09T10:03:42.708Z,935.12
2023-12-09T10:04:42.726Z,935.18
2023-12-09T10:05:42.656Z,935.15
2023-12-09T10:06:42.736Z,935.17
2023-12-09T10:07:42.736Z,935.16
2023-12-09T10:08:42.628Z,935.16
2023-12-09T10:09:42.666Z,935.16
2023-12-09T10:10:42.608Z,935.23
2023-12-09T10:11:42.598Z,935.18
2023-12-09T10:12:42.643Z,935.14
2023-12-09T10:13:42.580Z,935.17
2023-12-09T10:14:42.568Z,935.20
2023-12-09T10:15:42.575Z,935.23
2023-12-09T10:16:42.554Z,935.22
2023-12-09T10:17:42.776Z,935.19
2023-12-09T10:18:42.610Z,935.22
2023-12-09T10:19:42.576Z,935.25
2023-12-09T10:20:42.518Z,935.25
2023-12-09T10:21:42.686Z,935.25
2023-12-09T10:22:42.564Z,935.28
2023-12-09T10:23:42.482Z,935.26
2023-12-09T10:24:50.040Z,935.31
2023-12-09T10:25:42.469Z,935.32
2023-12-09T10:26:42.455Z,935.34
2023-12-09T10:27:42.568Z,935.28
2023-12-09T10:28:42.458Z,935.30
2023-12-09T10:29:44.793Z,935.31
2023-12-09T10:30:42.465Z,935.32
2023-12-09T10:31:42.521Z,935.31
2023-12-09T10:32:42.435Z,935.34
2023-12-09T10:33:42.482Z,935.32
2023-12-09T10:34:42.486Z,935.28
2023-12-09T10:35:42.366Z,935.38
2023-12-09T10:36:42.400Z,935.38
2023-12-09T10:37:42.348Z,935.45
2023-12-09T10:38:42.339Z,935.45
2023-12-09T10:39:42.408Z,935.49
2023-12-09T10:40:42.321Z,935.46
2023-12-09T10:41:42.304Z,935.46
2023-12-09T10:42:42.382Z,935.47
2023-12-09T10:43:42.285Z,935.45
2023-12-09T10:44:42.286Z,935.46
2023-12-09T10:45:42.380Z,935.50
2023-12-09T10:46:42.261Z,935.42
2023-12-09T10:47:42.307Z,935.46
2023-12-09T10:48:42.317Z,935.47
2023-12-09T10:49:42.277Z,935.47
2023-12-09T10:50:42.223Z,935.47
2023-12-09T10:51:42.360Z,935.43
2023-12-09T10:52:42.216Z,935.44
2023-12-09T10:53:42.197Z,935.42
2023-12-09T10:54:42.250Z,935.44
2023-12-09T10:55:42.174Z,935.49
2023-12-09T10:56:42.165Z,935.47
2023-12-09T10:57:42.310Z,935.48
2023-12-09T10:58:42.146Z,935.47
2023-12-09T10:59:42.181Z,935.49
2023-12-09T11:00:42.260Z,935.48
2023-12-09T11:01:42.226Z,935.47
2023-12-09T11:02:42.106Z,935.47
2023-12-09T11:03:42.173Z,935.46
2023-12-09T11:04:42.224Z,935.49
2023-12-09T11:05:42.163Z,935.46
2023-12-09T11:06:42.138Z,935.46
2023-12-09T11:07:42.080Z,935.51
2023-12-09T11:08:42.057Z,935.51
2023-12-09T11:09:42.154Z,935.50
2023-12-09T11:10:42.057Z,935.47
2023-12-09T11:11:42.023Z,935.48
2023-12-09T11:12:42.069Z,935.54
2023-12-09T11:13:42.015Z,935.54
2023-12-09T11:14:41.994Z,935.53
2023-12-09T11:15:42.068Z,935.52
2023-12-09T11:16:41.990Z,935.53
2023-12-09T11:17:42.200Z,935.51
2023-12-09T11:18:42.054Z,935.54
2023-12-09T11:19:42.036Z,935.48
2023-12-09T11:20:42.018Z,935.45
2023-12-09T11:21:41.945Z,935.46
2023-12-09T11:22:41.937Z,935.49
2023-12-09T11:23:42.215Z,935.48
2023-12-09T11:24:41.992Z,935.46
2023-12-09T11:25:42.000Z,935.46
2023-12-09T11:26:41.893Z,935.46
2023-12-09T11:27:41.888Z,935.42
2023-12-09T11:28:41.876Z,935.42
2023-12-09T11:29:41.872Z,935.43
2023-12-09T11:30:42.019Z,935.39
2023-12-09T11:31:41.856Z,935.38
2023-12-09T11:32:41.965Z,935.39
2023-12-09T11:33:41.893Z,935.39
2023-12-09T11:34:41.925Z,935.38
2023-12-09T11:35:41.819Z,935.42
2023-12-09T11:36:41.890Z,935.39
2023-12-09T11:37:41.802Z,935.40
2023-12-09T11:38:41.797Z,935.35
2023-12-09T11:39:41.841Z,935.36
2023-12-09T11:40:41.793Z,935.39
2023-12-09T11:41:41.780Z,935.44
2023-12-09T11:42:41.790Z,935.41
2023-12-09T11:43:41.756Z,935.38
2023-12-09T11:44:41.759Z,935.38
2023-12-09T11:45:41.810Z,935.41
2023-12-09T11:46:41.728Z,935.39
2023-12-09T11:47:41.859Z,935.41
2023-12-09T11:48:41.840Z,935.41
2023-12-09T11:49:42.046Z,935.41
2023-12-09T11:50:41.707Z,935.45
2023-12-09T11:51:41.753Z,935.46
2023-12-09T11:52:41.691Z,935.48
2023-12-09T11:53:41.677Z,935.49
2023-12-09T11:54:41.774Z,935.49
2023-12-09T11:55:41.672Z,935.53
2023-12-09T11:56:41.676Z,935.50
2023-12-09T11:57:41.706Z,935.55
2023-12-09T11:58:41.640Z,935.57
2023-12-09T11:59:41.631Z,935.57
2023-12-09T12:00:41.687Z,935.61
2023-12-09T12:01:41.615Z,935.59
2023-12-09T12:02:41.605Z,935.61
2023-12-09T12:03:41.687Z,935.60
2023-12-09T12:04:41.590Z,935.59
2023-12-09T12:05:41.645Z,935.60
2023-12-09T12:06:41.637Z,935.60
2023-12-09T12:07:41.569Z,935.59
2023-12-09T12:08:41.568Z,935.60
2023-12-09T12:09:41.571Z,935.62
2023-12-09T12:10:41.545Z,935.62
2023-12-09T12:11:41.537Z,935.59
2023-12-09T12:12:41.541Z,935.56
2023-12-09T12:13:41.521Z,935.61
2023-12-09T12:14:41.515Z,935.59
2023-12-09T12:15:41.658Z,935.59
2023-12-09T12:16:41.496Z,935.59
2023-12-09T12:17:41.914Z,935.65
2023-12-09T12:18:41.577Z,935.64
2023-12-09T12:19:41.560Z,935.62
2023-12-09T12:20:41.463Z,935.67
2023-12-09T12:21:41.504Z,935.69
2023-12-09T12:22:41.454Z,935.70
2023-12-09T12:23:41.447Z,935.66
2023-12-09T12:24:41.455Z,935.68
2023-12-09T12:25:41.441Z,935.65
2023-12-09T12:26:41.412Z,935.66
2023-12-09T12:27:41.460Z,935.66
2023-12-09T12:28:41.400Z,935.65